Time;durP1;ratioP1;P1;durP2;ratioP2;P2;SDS_P1;SDS_P2;PMS_P1;PMS_P2;Temp;Humidity;BMP_temperature;BMP_pressure;BME280_temperature;BME280_humidity;BME280_pressure;Samples;Min_cycle;Max_cycle;Signal;HPM_P1;HPM_P2
2021/07/30 00:02:19;;;;;;;7.97;3.20;;;;;;;;;;5049348;28;20636;-66
2021/07/30 00:04:44;;;;;;;10.50;3.28;;;;;;;;;;5049309;28;20338;-66
2021/07/30 00:07:09;;;;;;;11.63;3.43;;;;;;;;;;5044598;28;20096;-65
2021/07/30 00:09:34;;;;;;;13.23;4.13;;;;;;;;;;5069773;22;20515;-65
2021/07/30 00:11:59;;;;;;;13.53;3.20;;;;;;;;;;5080664;28;20270;-65
2021/07/30 00:14:24;;;;;;;12.40;3.57;;;;;;;;;;5079224;28;20861;-65
2021/07/30 00:16:50;;;;;;;10.17;3.77;;;;;;;;;;5092769;28;20275;-67
2021/07/30 00:19:15;;;;;;;7.38;3.13;;;;;;;;;;5090383;28;20262;-67
2021/07/30 00:21:40;;;;;;;10.50;3.17;;;;;;;;;;5072552;28;20357;-67
2021/07/30 00:24:05;;;;;;;9.52;3.50;;;;;;;;;;5073281;28;20023;-67
2021/07/30 00:26:30;;;;;;;10.65;4.28;;;;;;;;;;5072855;28;20033;-67
2021/07/30 00:28:56;;;;;;;7.07;3.17;;;;;;;;;;5072490;28;20028;-67
2021/07/30 00:31:21;;;;;;;12.82;3.90;;;;;;;;;;5072689;28;20267;-67
2021/07/30 00:33:46;;;;;;;11.60;3.42;;;;;;;;;;5072478;28;20085;-67
2021/07/30 00:36:11;;;;;;;9.30;4.18;;;;;;;;;;5064399;28;20021;-67
2021/07/30 00:38:36;;;;;;;8.80;3.17;;;;;;;;;;5063716;28;20029;-67
2021/07/30 00:41:02;;;;;;;13.20;3.20;;;;;;;;;;5070826;28;20326;-67
2021/07/30 00:43:27;;;;;;;10.20;4.18;;;;;;;;;;5070897;28;20275;-67
2021/07/30 00:45:53;;;;;;;10.43;3.65;;;;;;;;;;5069664;28;20101;-67
2021/07/30 00:48:19;;;;;;;8.25;3.20;;;;;;;;;;5069934;28;20033;-67
2021/07/30 00:50:44;;;;;;;7.30;3.63;;;;;;;;;;5070491;28;20388;-67
2021/07/30 00:53:09;;;;;;;9.68;3.53;;;;;;;;;;5070538;28;20449;-66
2021/07/30 00:55:36;;;;;;;7.10;3.42;;;;;;;;;;5070852;28;20028;-67
2021/07/30 00:58:01;;;;;;;9.50;3.25;;;;;;;;;;5070357;28;20028;-67
2021/07/30 01:00:27;;;;;;;7.95;2.60;;;;;;;;;;5070123;28;20025;-66
2021/07/30 01:02:53;;;;;;;5.32;2.60;;;;;;;;;;5069973;28;20075;-66
2021/07/30 01:05:18;;;;;;;7.60;3.05;;;;;;;;;;5070325;28;20055;-67
2021/07/30 01:07:43;;;;;;;8.73;3.05;;;;;;;;;;5069475;28;20020;-67
2021/07/30 01:10:09;;;;;;;12.60;4.20;;;;;;;;;;5069875;28;20365;-67
2021/07/30 01:12:34;;;;;;;7.38;3.58;;;;;;;;;;5070013;28;20032;-67
2021/07/30 01:14:59;;;;;;;8.73;2.88;;;;;;;;;;5068910;28;20508;-66
2021/07/30 01:17:25;;;;;;;13.68;3.00;;;;;;;;;;5069350;28;20449;-67
2021/07/30 01:19:51;;;;;;;5.90;3.13;;;;;;;;;;5069194;28;20052;-66
2021/07/30 01:22:23;;;;;;;11.27;3.83;;;;;;;;;;5069558;28;20090;-66
2021/07/30 01:24:49;;;;;;;11.43;3.25;;;;;;;;;;5069831;28;20024;-66
2021/07/30 01:27:14;;;;;;;7.22;3.30;;;;;;;;;;5069283;28;20029;-66
2021/07/30 01:29:40;;;;;;;10.30;3.08;;;;;;;;;;5069014;28;20016;-67
2021/07/30 01:32:06;;;;;;;10.77;3.47;;;;;;;;;;5068738;28;20024;-66
2021/07/30 01:34:31;;;;;;;4.70;2.67;;;;;;;;;;5068673;28;20507;-66
2021/07/30 01:36:56;;;;;;;6.83;2.93;;;;;;;;;;5060777;28;20033;-66
2021/07/30 01:39:21;;;;;;;9.57;2.97;;;;;;;;;;5065610;28;20375;-67
2021/07/30 01:41:46;;;;;;;8.17;3.20;;;;;;;;;;5061178;28;20274;-66
2021/07/30 01:44:14;;;;;;;7.07;3.28;;;;;;;;;;5064688;28;20325;-66
2021/07/30 01:46:39;;;;;;;10.80;3.15;;;;;;;;;;5065214;28;20017;-66
2021/07/30 01:49:04;;;;;;;10.25;3.38;;;;;;;;;;5071156;28;20100;-66
2021/07/30 01:51:29;;;;;;;5.32;2.60;;;;;;;;;;5071844;28;20017;-66
2021/07/30 01:53:55;;;;;;;6.73;2.90;;;;;;;;;;5069260;28;20111;-67
2021/07/30 01:56:20;;;;;;;8.70;3.07;;;;;;;;;;5067569;28;20262;-66
2021/07/30 01:58:45;;;;;;;11.10;2.78;;;;;;;;;;5061942;28;20275;-66
2021/07/30 02:01:10;;;;;;;4.70;2.65;;;;;;;;;;5070766;28;20023;-66
2021/07/30 02:03:35;;;;;;;12.80;3.70;;;;;;;;;;5070993;28;20223;-66
2021/07/30 02:06:07;;;;;;;7.53;3.50;;;;;;;;;;5070748;28;20035;-66
2021/07/30 02:08:33;;;;;;;10.23;3.10;;;;;;;;;;5070347;28;20265;-66
2021/07/30 02:10:58;;;;;;;9.23;3.08;;;;;;;;;;5070887;28;20032;-66
2021/07/30 02:16:07;;;;;;;7.03;3.00;;;;;;;;;;5070183;28;20393;-66
2021/07/30 02:18:32;;;;;;;7.73;3.27;;;;;;;;;;5070532;28;20134;-67
2021/07/30 02:20:57;;;;;;;5.25;2.70;;;;;;;;;;5070339;28;20266;-66
2021/07/30 02:23:22;;;;;;;9.15;3.13;;;;;;;;;;5070417;28;20028;-66
2021/07/30 02:25:47;;;;;;;8.63;2.53;;;;;;;;;;5070348;28;20024;-66
2021/07/30 02:28:13;;;;;;;9.00;2.53;;;;;;;;;;5067200;28;20853;-66
2021/07/30 02:30:38;;;;;;;6.10;3.20;;;;;;;;;;5065196;28;20259;-66
2021/07/30 02:33:03;;;;;;;10.95;3.00;;;;;;;;;;5069732;28;20283;-66
2021/07/30 02:35:28;;;;;;;6.00;2.70;;;;;;;;;;5065091;28;20116;-66
2021/07/30 02:37:53;;;;;;;8.70;2.87;;;;;;;;;;5068820;28;20263;-66
2021/07/30 02:40:18;;;;;;;9.20;2.80;;;;;;;;;;5069239;28;20313;-67
2021/07/30 02:42:44;;;;;;;7.70;3.20;;;;;;;;;;5070261;28;20255;-66
2021/07/30 02:45:09;;;;;;;6.30;2.80;;;;;;;;;;5070376;28;20419;-66
2021/07/30 02:47:34;;;;;;;5.57;2.70;;;;;;;;;;5070019;28;20270;-66
2021/07/30 02:50:00;;;;;;;8.35;2.80;;;;;;;;;;5070023;28;20027;-66
2021/07/30 02:52:25;;;;;;;7.25;3.08;;;;;;;;;;5068872;28;20460;-66
2021/07/30 02:54:50;;;;;;;10.93;2.97;;;;;;;;;;5070268;28;20651;-66
2021/07/30 02:57:15;;;;;;;10.68;3.65;;;;;;;;;;5069667;28;20076;-66
2021/07/30 02:59:40;;;;;;;8.37;3.00;;;;;;;;;;5069237;28;20013;-66
2021/07/30 03:02:06;;;;;;;9.97;2.50;;;;;;;;;;5069103;28;20271;-66
2021/07/30 03:04:31;;;;;;;13.63;3.63;;;;;;;;;;5069812;28;20278;-67
2021/07/30 03:06:56;;;;;;;7.65;2.75;;;;;;;;;;5069422;28;20024;-66
2021/07/30 03:09:21;;;;;;;9.13;2.73;;;;;;;;;;5068619;28;20020;-66
2021/07/30 03:11:47;;;;;;;6.25;3.35;;;;;;;;;;5062977;28;20270;-66
2021/07/30 03:14:12;;;;;;;5.40;3.10;;;;;;;;;;5054014;28;20025;-67
2021/07/30 03:16:37;;;;;;;5.35;3.25;;;;;;;;;;5069582;28;20263;-66
2021/07/30 03:19:03;;;;;;;6.40;2.90;;;;;;;;;;5069395;28;20025;-66
2021/07/30 03:21:28;;;;;;;11.15;3.17;;;;;;;;;;5070123;28;20354;-66
2021/07/30 03:23:54;;;;;;;9.75;3.53;;;;;;;;;;5069479;28;20032;-66
2021/07/30 03:26:19;;;;;;;7.22;3.50;;;;;;;;;;5069969;28;20052;-67
2021/07/30 03:28:46;;;;;;;8.85;3.72;;;;;;;;;;5069944;28;20059;-66
2021/07/30 03:31:12;;;;;;;7.45;3.38;;;;;;;;;;5069449;28;20388;-66
2021/07/30 03:33:37;;;;;;;11.57;3.73;;;;;;;;;;5070124;28;20035;-66
2021/07/30 03:36:03;;;;;;;8.77;3.03;;;;;;;;;;5068154;28;20320;-66
2021/07/30 03:38:28;;;;;;;8.95;2.92;;;;;;;;;;5068903;28;20274;-66
2021/07/30 03:40:53;;;;;;;6.32;3.33;;;;;;;;;;5068537;28;20098;-66
2021/07/30 03:43:18;;;;;;;8.90;3.40;;;;;;;;;;5069695;28;20028;-66
2021/07/30 03:45:43;;;;;;;4.90;2.90;;;;;;;;;;5068812;28;20661;-66
2021/07/30 03:48:09;;;;;;;8.50;3.97;;;;;;;;;;5069759;28;20285;-66
2021/07/30 03:50:34;;;;;;;12.82;2.97;;;;;;;;;;5071077;28;20258;-67
2021/07/30 03:53:00;;;;;;;6.22;3.03;;;;;;;;;;5073574;28;20021;-66
2021/07/30 03:55:26;;;;;;;8.05;3.20;;;;;;;;;;5073423;28;20017;-66
2021/07/30 03:57:51;;;;;;;6.15;3.97;;;;;;;;;;5072772;28;20023;-66
2021/07/30 04:00:16;;;;;;;10.57;3.23;;;;;;;;;;5073573;28;20021;-66
2021/07/30 04:02:41;;;;;;;8.82;3.30;;;;;;;;;;5073667;28;20750;-66
2021/07/30 04:05:07;;;;;;;6.88;2.65;;;;;;;;;;5073620;28;20024;-66
2021/07/30 04:07:32;;;;;;;11.98;3.22;;;;;;;;;;5073255;28;20099;-66
2021/07/30 04:09:58;;;;;;;6.33;3.17;;;;;;;;;;5071968;28;20440;-66
2021/07/30 04:12:23;;;;;;;7.50;3.97;;;;;;;;;;5072737;28;20277;-66
2021/07/30 04:14:48;;;;;;;10.43;4.00;;;;;;;;;;5073294;28;20013;-66
2021/07/30 04:17:13;;;;;;;10.15;3.47;;;;;;;;;;5073229;28;20017;-66
2021/07/30 04:19:43;;;;;;;5.38;3.30;;;;;;;;;;5072813;28;20020;-67
2021/07/30 04:22:09;;;;;;;6.05;3.22;;;;;;;;;;5072783;28;20016;-66
2021/07/30 04:24:34;;;;;;;7.13;2.78;;;;;;;;;;5072028;28;20502;-66
2021/07/30 04:26:59;;;;;;;10.80;4.60;;;;;;;;;;5073009;28;20028;-67
2021/07/30 04:29:25;;;;;;;8.63;3.50;;;;;;;;;;5072084;28;20270;-66
2021/07/30 04:31:50;;;;;;;6.80;3.78;;;;;;;;;;5073141;28;20757;-66
2021/07/30 04:34:15;;;;;;;9.00;3.80;;;;;;;;;;5072752;28;20166;-66
2021/07/30 04:36:41;;;;;;;10.00;3.83;;;;;;;;;;5072797;28;20250;-66
2021/07/30 04:39:06;;;;;;;13.80;3.20;;;;;;;;;;5072070;28;20285;-66
2021/07/30 04:41:32;;;;;;;8.37;2.90;;;;;;;;;;5072056;28;20485;-66
2021/07/30 04:43:57;;;;;;;12.13;3.88;;;;;;;;;;5072790;28;20352;-66
2021/07/30 04:46:23;;;;;;;9.48;3.33;;;;;;;;;;5072515;28;20066;-66
2021/07/30 04:48:48;;;;;;;8.65;3.72;;;;;;;;;;5072607;28;20024;-66
2021/07/30 04:51:13;;;;;;;8.15;3.25;;;;;;;;;;5072746;28;20035;-66
2021/07/30 04:53:38;;;;;;;7.07;3.40;;;;;;;;;;5071965;28;20028;-66
2021/07/30 04:56:04;;;;;;;6.03;3.42;;;;;;;;;;5071816;28;20092;-66
2021/07/30 04:58:29;;;;;;;18.23;4.65;;;;;;;;;;5060063;28;20039;-66
2021/07/30 05:00:54;;;;;;;5.53;3.03;;;;;;;;;;5063223;28;20052;-66
2021/07/30 05:03:19;;;;;;;8.77;3.10;;;;;;;;;;5069021;28;20048;-66
2021/07/30 05:05:45;;;;;;;9.33;3.37;;;;;;;;;;5070061;28;20081;-66
2021/07/30 05:08:10;;;;;;;11.33;3.57;;;;;;;;;;5069481;28;20274;-66
2021/07/30 05:10:35;;;;;;;8.07;3.25;;;;;;;;;;5068862;28;20310;-66
2021/07/30 05:13:01;;;;;;;5.13;3.07;;;;;;;;;;5068812;28;20082;-66
2021/07/30 05:15:26;;;;;;;5.70;3.20;;;;;;;;;;5069625;28;20653;-66
2021/07/30 05:17:51;;;;;;;6.47;2.92;;;;;;;;;;5070130;28;20790;-66
2021/07/30 05:20:16;;;;;;;6.82;2.90;;;;;;;;;;5069836;28;20020;-66
2021/07/30 05:22:41;;;;;;;7.00;2.85;;;;;;;;;;5069215;28;20028;-66
2021/07/30 05:25:09;;;;;;;7.10;3.70;;;;;;;;;;5067778;28;20063;-66
2021/07/30 05:27:34;;;;;;;8.55;3.72;;;;;;;;;;5067767;28;20372;-66
2021/07/30 05:29:59;;;;;;;6.63;3.20;;;;;;;;;;5056255;28;20482;-66
2021/07/30 05:32:25;;;;;;;8.20;3.17;;;;;;;;;;5064003;28;20273;-66
2021/07/30 05:34:50;;;;;;;8.68;2.78;;;;;;;;;;5069421;28;20021;-66
2021/07/30 05:37:15;;;;;;;12.10;2.80;;;;;;;;;;5069551;28;20020;-67
2021/07/30 05:39:41;;;;;;;7.17;2.80;;;;;;;;;;5067993;28;20774;-66
2021/07/30 05:42:06;;;;;;;7.53;3.20;;;;;;;;;;5069769;28;20266;-66
2021/07/30 05:44:32;;;;;;;8.00;3.03;;;;;;;;;;5069586;28;20103;-66
2021/07/30 05:46:57;;;;;;;5.97;2.63;;;;;;;;;;5068134;28;20069;-66
2021/07/30 05:49:22;;;;;;;9.57;3.08;;;;;;;;;;5068728;28;20078;-66
2021/07/30 05:51:47;;;;;;;9.67;3.20;;;;;;;;;;5069455;28;20484;-67
2021/07/30 05:54:12;;;;;;;4.00;2.60;;;;;;;;;;5069206;28;20349;-66
2021/07/30 05:56:37;;;;;;;14.02;4.10;;;;;;;;;;5068384;28;20259;-66
2021/07/30 05:59:03;;;;;;;10.50;2.40;;;;;;;;;;5068037;28;20081;-66
2021/07/30 06:01:28;;;;;;;9.02;2.80;;;;;;;;;;5066236;28;20255;-66
2021/07/30 06:03:54;;;;;;;7.18;3.05;;;;;;;;;;5067459;28;20035;-66
2021/07/30 06:06:19;;;;;;;10.45;3.20;;;;;;;;;;5070982;28;20121;-66
2021/07/30 06:08:45;;;;;;;8.48;3.10;;;;;;;;;;5070749;28;20503;-66
2021/07/30 06:11:10;;;;;;;14.80;2.97;;;;;;;;;;5102440;22;20122;-65
2021/07/30 06:13:35;;;;;;;8.60;2.65;;;;;;;;;;5032355;28;20143;-64
2021/07/30 06:16:00;;;;;;;9.15;2.97;;;;;;;;;;5050650;28;20033;-64
2021/07/30 06:18:26;;;;;;;5.90;2.30;;;;;;;;;;5050566;28;20032;-65
2021/07/30 06:20:51;;;;;;;5.20;2.58;;;;;;;;;;5051201;28;20278;-65
2021/07/30 06:23:16;;;;;;;10.68;2.95;;;;;;;;;;5050019;28;20025;-66
2021/07/30 06:25:42;;;;;;;11.00;2.85;;;;;;;;;;5049030;28;20033;-65
2021/07/30 06:28:07;;;;;;;9.02;2.63;;;;;;;;;;5050159;28;20424;-65
2021/07/30 06:30:32;;;;;;;6.00;2.80;;;;;;;;;;5049975;28;20528;-65
2021/07/30 06:32:57;;;;;;;6.90;2.38;;;;;;;;;;5050790;28;20329;-65
2021/07/30 06:35:25;;;;;;;8.17;2.73;;;;;;;;;;5051189;28;20033;-65
2021/07/30 06:37:50;;;;;;;10.10;1.77;;;;;;;;;;5049789;28;20259;-65
2021/07/30 06:40:15;;;;;;;6.25;2.30;;;;;;;;;;5050075;28;20071;-65
2021/07/30 06:42:40;;;;;;;10.27;2.63;;;;;;;;;;5050365;28;20366;-65
2021/07/30 06:45:06;;;;;;;7.68;2.42;;;;;;;;;;5050151;28;20059;-65
2021/07/30 06:47:40;;;;;;;8.73;2.97;;;;;;;;;;5050438;28;20024;-66
2021/07/30 06:50:06;;;;;;;5.80;2.08;;;;;;;;;;5050523;28;20025;-64
2021/07/30 06:52:31;;;;;;;2.75;1.30;;;;;;;;;;5031890;28;20029;-65
2021/07/30 06:54:56;;;;;;;7.07;2.65;;;;;;;;;;5050573;28;20009;-65
2021/07/30 06:57:22;;;;;;;6.47;2.28;;;;;;;;;;5050196;28;20377;-65
2021/07/30 06:59:47;;;;;;;9.63;2.58;;;;;;;;;;5049688;28;20469;-65
2021/07/30 07:02:12;;;;;;;8.82;2.67;;;;;;;;;;5049557;28;20100;-66
2021/07/30 07:04:37;;;;;;;9.87;2.17;;;;;;;;;;5050112;28;20087;-66
2021/07/30 07:07:04;;;;;;;6.10;3.23;;;;;;;;;;5049740;28;20267;-66
2021/07/30 07:09:29;;;;;;;9.25;2.83;;;;;;;;;;5049409;28;20271;-66
2021/07/30 07:11:54;;;;;;;5.15;2.55;;;;;;;;;;5049526;28;20035;-66
2021/07/30 07:14:19;;;;;;;6.07;2.40;;;;;;;;;;5049858;28;20067;-65
2021/07/30 07:16:44;;;;;;;3.30;1.77;;;;;;;;;;5049410;28;20539;-65
2021/07/30 07:19:10;;;;;;;12.53;2.30;;;;;;;;;;5049362;28;20024;-65
2021/07/30 07:21:36;;;;;;;6.57;2.92;;;;;;;;;;5049969;28;20258;-65
2021/07/30 07:24:01;;;;;;;13.65;3.22;;;;;;;;;;5050034;28;20032;-65
2021/07/30 07:26:26;;;;;;;7.50;1.80;;;;;;;;;;5052714;28;20024;-65
2021/07/30 07:28:51;;;;;;;8.23;1.70;;;;;;;;;;5054352;28;20477;-65
2021/07/30 07:31:17;;;;;;;4.10;1.93;;;;;;;;;;5053745;28;20262;-67
2021/07/30 07:33:42;;;;;;;8.23;2.40;;;;;;;;;;5054016;28;20283;-65
2021/07/30 07:36:07;;;;;;;5.63;2.33;;;;;;;;;;5053806;28;20068;-66
2021/07/30 07:38:32;;;;;;;3.38;1.55;;;;;;;;;;5053556;28;20421;-65
2021/07/30 07:40:59;;;;;;;6.27;2.20;;;;;;;;;;5054215;28;20045;-65
2021/07/30 07:43:24;;;;;;;3.55;1.73;;;;;;;;;;5053928;28;20751;-66
2021/07/30 07:45:49;;;;;;;7.72;2.47;;;;;;;;;;5053804;28;20037;-67
2021/07/30 07:48:15;;;;;;;12.00;1.87;;;;;;;;;;5052901;28;20021;-66
2021/07/30 07:50:40;;;;;;;5.03;1.92;;;;;;;;;;5053605;28;20100;-66
2021/07/30 07:53:15;;;;;;;6.70;1.90;;;;;;;;;;5053715;28;20354;-66
2021/07/30 07:55:40;;;;;;;9.00;1.95;;;;;;;;;;5053101;28;20032;-67
2021/07/30 07:58:05;;;;;;;6.22;2.35;;;;;;;;;;5053236;28;20029;-66
2021/07/30 08:00:30;;;;;;;4.57;2.15;;;;;;;;;;5053027;28;20025;-66
2021/07/30 08:02:56;;;;;;;3.77;1.63;;;;;;;;;;5053343;28;20033;-66
2021/07/30 08:05:21;;;;;;;5.97;2.25;;;;;;;;;;5053027;28;20263;-66
2021/07/30 08:07:46;;;;;;;10.10;2.40;;;;;;;;;;5053454;28;20028;-67
2021/07/30 08:10:11;;;;;;;9.30;2.50;;;;;;;;;;5052741;28;20025;-67
2021/07/30 08:12:36;;;;;;;3.97;2.00;;;;;;;;;;5053400;28;20027;-67
2021/07/30 08:15:02;;;;;;;7.20;2.17;;;;;;;;;;5053325;28;20275;-67
2021/07/30 08:17:28;;;;;;;9.30;2.13;;;;;;;;;;5052714;28;20324;-65
2021/07/30 08:19:53;;;;;;;6.22;2.45;;;;;;;;;;5053006;28;20029;-66
2021/07/30 08:22:18;;;;;;;4.67;2.13;;;;;;;;;;5052896;28;20384;-66
2021/07/30 08:24:43;;;;;;;5.37;2.13;;;;;;;;;;5052160;28;20609;-66
2021/07/30 08:27:10;;;;;;;6.67;2.30;;;;;;;;;;5053552;28;20603;-65
2021/07/30 08:29:36;;;;;;;7.82;2.10;;;;;;;;;;5052685;28;20262;-66
2021/07/30 08:32:01;;;;;;;7.47;3.03;;;;;;;;;;5052831;28;20021;-66
2021/07/30 08:34:26;;;;;;;7.88;2.10;;;;;;;;;;5052248;28;20493;-66
2021/07/30 08:36:51;;;;;;;6.90;1.93;;;;;;;;;;5052866;28;20104;-65
2021/07/30 08:39:17;;;;;;;6.53;2.10;;;;;;;;;;5052055;28;20302;-66
2021/07/30 08:41:43;;;;;;;7.00;2.77;;;;;;;;;;5053072;28;20055;-65
2021/07/30 08:44:09;;;;;;;6.60;2.17;;;;;;;;;;5052519;28;20263;-66
2021/07/30 08:46:35;;;;;;;10.32;2.10;;;;;;;;;;5044658;28;20027;-65
2021/07/30 08:49:01;;;;;;;7.28;2.20;;;;;;;;;;5052211;28;20091;-66
2021/07/30 08:51:27;;;;;;;4.70;1.50;;;;;;;;;;5052340;28;20027;-65
2021/07/30 08:53:53;;;;;;;5.68;1.65;;;;;;;;;;5052547;28;20017;-65
2021/07/30 08:56:19;;;;;;;5.60;2.15;;;;;;;;;;5052325;28;20096;-66
2021/07/30 08:58:44;;;;;;;7.53;2.33;;;;;;;;;;5051596;28;20117;-67
2021/07/30 09:01:10;;;;;;;7.23;2.07;;;;;;;;;;5052546;28;20092;-67
2021/07/30 09:03:40;;;;;;;1.27;0.98;;;;;;;;;;5051976;28;20446;-66
2021/07/30 09:06:17;;;;;;;10.10;2.35;;;;;;;;;;5052780;28;20067;-67
2021/07/30 09:08:42;;;;;;;9.43;3.60;;;;;;;;;;5051595;28;20481;-67
2021/07/30 09:11:08;;;;;;;7.30;2.05;;;;;;;;;;5051124;28;20033;-67
2021/07/30 09:13:35;;;;;;;5.30;2.17;;;;;;;;;;5052049;28;20075;-67
2021/07/30 09:16:07;;;;;;;5.10;1.88;;;;;;;;;;5050990;28;20021;-67
2021/07/30 09:18:34;;;;;;;6.82;2.00;;;;;;;;;;5042033;28;20111;-67
2021/07/30 09:21:18;;;;;;;6.30;2.08;;;;;;;;;;5052202;28;20055;-67
2021/07/30 09:23:47;;;;;;;5.20;1.90;;;;;;;;;;5051536;28;20051;-67
2021/07/30 09:26:27;;;;;;;4.07;1.73;;;;;;;;;;5044618;28;20020;-67
2021/07/30 09:28:53;;;;;;;10.57;3.47;;;;;;;;;;5051576;28;20055;-67
2021/07/30 09:31:18;;;;;;;4.43;2.28;;;;;;;;;;5051366;28;20025;-67
2021/07/30 09:33:44;;;;;;;6.50;3.00;;;;;;;;;;5052206;28;20052;-67
2021/07/30 09:36:09;;;;;;;5.70;2.20;;;;;;;;;;5051424;28;20017;-67
2021/07/30 09:38:34;;;;;;;5.80;2.10;;;;;;;;;;5049459;28;20329;-67
2021/07/30 09:41:08;;;;;;;6.50;2.50;;;;;;;;;;5047521;28;20280;-66
2021/07/30 09:43:33;;;;;;;3.40;1.75;;;;;;;;;;5053317;28;20274;-67
2021/07/30 09:46:12;;;;;;;23.13;3.58;;;;;;;;;;5053710;28;20032;-67
2021/07/30 09:48:52;;;;;;;10.65;3.38;;;;;;;;;;5030978;28;20017;-66
2021/07/30 09:51:19;;;;;;;4.55;2.30;;;;;;;;;;5046612;28;20389;-66
2021/07/30 09:53:45;;;;;;;8.05;2.25;;;;;;;;;;5033252;28;20048;-67
2021/07/30 09:56:16;;;;;;;5.68;2.47;;;;;;;;;;5050942;28;20021;-66
2021/07/30 09:58:46;;;;;;;7.40;2.65;;;;;;;;;;5051328;28;20082;-68
2021/07/30 10:01:13;;;;;;;7.15;2.00;;;;;;;;;;5051528;28;20017;-67
2021/07/30 10:03:41;;;;;;;4.78;2.28;;;;;;;;;;5051428;28;20037;-68
2021/07/30 10:06:06;;;;;;;4.97;2.03;;;;;;;;;;5049575;28;20500;-66
2021/07/30 10:08:32;;;;;;;4.27;2.20;;;;;;;;;;5031555;28;20033;-67
2021/07/30 10:10:58;;;;;;;9.10;2.17;;;;;;;;;;5048096;28;20621;-67
2021/07/30 10:13:35;;;;;;;3.57;1.93;;;;;;;;;;5050829;28;20032;-67
2021/07/30 10:16:00;;;;;;;8.55;2.72;;;;;;;;;;5050689;28;20777;-67
2021/07/30 10:18:25;;;;;;;3.22;2.05;;;;;;;;;;5050698;28;20052;-67
2021/07/30 10:20:50;;;;;;;6.77;2.57;;;;;;;;;;5050473;28;20024;-68
2021/07/30 10:23:18;;;;;;;7.97;2.70;;;;;;;;;;5050602;28;20024;-67
2021/07/30 10:25:54;;;;;;;5.50;2.47;;;;;;;;;;5049738;28;20272;-67
2021/07/30 10:28:21;;;;;;;7.35;2.10;;;;;;;;;;5050675;28;20477;-66
2021/07/30 10:30:58;;;;;;;9.05;3.65;;;;;;;;;;5050586;28;20013;-68
2021/07/30 10:33:41;;;;;;;8.68;1.75;;;;;;;;;;5050152;28;20025;-66
2021/07/30 10:36:07;;;;;;;4.22;1.73;;;;;;;;;;5044862;28;20028;-68
2021/07/30 10:38:32;;;;;;;3.15;1.88;;;;;;;;;;5048095;28;20432;-67
2021/07/30 10:40:58;;;;;;;5.53;2.55;;;;;;;;;;5050239;28;20032;-67
2021/07/30 10:43:23;;;;;;;4.13;2.17;;;;;;;;;;5050033;28;20041;-67
2021/07/30 10:46:05;;;;;;;5.15;1.67;;;;;;;;;;5050643;28;20492;-68
2021/07/30 10:48:37;;;;;;;6.60;2.30;;;;;;;;;;5030522;28;20036;-67
2021/07/30 10:51:04;;;;;;;8.73;1.75;;;;;;;;;;5045797;28;20039;-66
2021/07/30 10:53:36;;;;;;;4.80;2.47;;;;;;;;;;5050288;28;20024;-66
2021/07/30 10:56:03;;;;;;;5.47;2.25;;;;;;;;;;5049822;28;20056;-66
2021/07/30 10:58:40;;;;;;;11.68;2.28;;;;;;;;;;5049851;28;20059;-66
2021/07/30 11:01:15;;;;;;;4.63;2.20;;;;;;;;;;5048440;28;20025;-66
2021/07/30 11:03:50;;;;;;;3.67;2.20;;;;;;;;;;5050101;28;20024;-66
2021/07/30 11:06:28;;;;;;;6.50;1.35;;;;;;;;;;5050007;28;20151;-66
2021/07/30 11:09:06;;;;;;;3.90;1.77;;;;;;;;;;5049273;28;20021;-68
2021/07/30 11:11:34;;;;;;;6.03;2.38;;;;;;;;;;5049538;28;20118;-66
2021/07/30 11:14:00;;;;;;;6.03;1.60;;;;;;;;;;5050169;28;20106;-66
2021/07/30 11:16:25;;;;;;;10.80;2.08;;;;;;;;;;5049824;28;20061;-66
2021/07/30 11:18:50;;;;;;;5.67;1.83;;;;;;;;;;5050465;28;20025;-66
2021/07/30 11:21:15;;;;;;;2.07;1.37;;;;;;;;;;5050089;28;20032;-66
2021/07/30 11:23:44;;;;;;;2.97;1.60;;;;;;;;;;5049569;28;20017;-66
2021/07/30 11:26:09;;;;;;;5.25;1.27;;;;;;;;;;5049138;28;20028;-66
2021/07/30 11:28:34;;;;;;;3.50;1.67;;;;;;;;;;5049763;28;20021;-66
2021/07/30 11:30:59;;;;;;;6.38;2.30;;;;;;;;;;5049114;28;20313;-65
2021/07/30 11:33:25;;;;;;;3.80;1.63;;;;;;;;;;5050098;28;20090;-66
2021/07/30 11:35:51;;;;;;;4.57;2.15;;;;;;;;;;5049620;28;20563;-66
2021/07/30 11:38:16;;;;;;;36.90;4.00;;;;;;;;;;5049406;28;20013;-66
2021/07/30 11:40:41;;;;;;;5.40;2.73;;;;;;;;;;5049642;28;20701;-66
2021/07/30 11:43:07;;;;;;;2.65;1.40;;;;;;;;;;5049975;28;20267;-65
2021/07/30 11:45:33;;;;;;;9.40;2.55;;;;;;;;;;5049784;28;20044;-65
2021/07/30 11:47:58;;;;;;;5.85;2.28;;;;;;;;;;5049624;28;20053;-66
2021/07/30 11:50:25;;;;;;;6.32;2.17;;;;;;;;;;5049494;28;20418;-66
2021/07/30 11:52:51;;;;;;;6.00;2.63;;;;;;;;;;5049261;28;20524;-66
2021/07/30 11:55:19;;;;;;;6.83;2.27;;;;;;;;;;5049401;28;20044;-66
2021/07/30 11:57:45;;;;;;;2.47;1.80;;;;;;;;;;5049249;28;20317;-66
2021/07/30 12:00:11;;;;;;;4.65;2.35;;;;;;;;;;5049348;28;20691;-66
2021/07/30 12:02:36;;;;;;;5.57;2.30;;;;;;;;;;5049667;28;20021;-66
2021/07/30 12:05:01;;;;;;;3.17;2.27;;;;;;;;;;5049367;28;20078;-66
2021/07/30 12:07:31;;;;;;;11.40;2.75;;;;;;;;;;5049606;28;20259;-65
2021/07/30 12:09:58;;;;;;;7.10;2.42;;;;;;;;;;5030677;28;20047;-66
2021/07/30 12:12:24;;;;;;;3.88;1.45;;;;;;;;;;5049306;28;20024;-66
2021/07/30 12:14:50;;;;;;;7.20;2.35;;;;;;;;;;5052852;28;20023;-66
2021/07/30 12:17:16;;;;;;;3.28;1.80;;;;;;;;;;5050398;28;20477;-66
2021/07/30 12:19:42;;;;;;;6.53;2.65;;;;;;;;;;5046222;28;20025;-66
2021/07/30 12:22:08;;;;;;;5.07;2.28;;;;;;;;;;5052990;28;20016;-65
2021/07/30 12:24:34;;;;;;;5.70;2.40;;;;;;;;;;5051796;28;20020;-66
2021/07/30 12:27:15;;;;;;;6.38;2.50;;;;;;;;;;5052439;28;20024;-66
2021/07/30 12:29:42;;;;;;;9.82;2.58;;;;;;;;;;5052330;28;20036;-66
2021/07/30 12:32:13;;;;;;;4.40;2.15;;;;;;;;;;5052682;28;20053;-64
2021/07/30 12:34:39;;;;;;;3.70;2.50;;;;;;;;;;5039523;28;20473;-67
2021/07/30 12:37:08;;;;;;;4.68;2.30;;;;;;;;;;5053041;28;20032;-66
2021/07/30 12:39:42;;;;;;;7.65;2.72;;;;;;;;;;5045474;28;20010;-66
2021/07/30 12:42:15;;;;;;;4.97;2.53;;;;;;;;;;5035928;28;20504;-66
2021/07/30 12:44:40;;;;;;;4.22;2.65;;;;;;;;;;5051286;28;20644;-65
2021/07/30 12:47:11;;;;;;;2.05;1.40;;;;;;;;;;5051949;28;20067;-66
2021/07/30 12:49:38;;;;;;;5.80;2.33;;;;;;;;;;5044093;28;20108;-66
2021/07/30 12:52:13;;;;;;;2.80;1.63;;;;;;;;;;5047651;28;20013;-66
2021/07/30 12:54:38;;;;;;;6.85;2.83;;;;;;;;;;5051713;28;20071;-66
2021/07/30 12:57:07;;;;;;;4.47;2.77;;;;;;;;;;5052669;28;20030;-66
2021/07/30 12:59:47;;;;;;;8.30;2.63;;;;;;;;;;5050773;28;20589;-66
2021/07/30 13:02:13;;;;;;;5.75;1.95;;;;;;;;;;5039295;28;20017;-66
2021/07/30 13:04:39;;;;;;;1.08;0.63;;;;;;;;;;5051959;28;20063;-66
2021/07/30 13:07:04;;;;;;;2.42;1.55;;;;;;;;;;5052636;28;20521;-65
2021/07/30 13:09:29;;;;;;;4.53;2.78;;;;;;;;;;5051786;28;20508;-66
2021/07/30 13:11:54;;;;;;;3.27;1.77;;;;;;;;;;5030451;28;20065;-67
2021/07/30 13:14:20;;;;;;;6.50;2.92;;;;;;;;;;5051304;28;20021;-66
2021/07/30 13:16:45;;;;;;;8.17;2.60;;;;;;;;;;5047041;28;20120;-66
2021/07/30 13:19:10;;;;;;;8.77;2.93;;;;;;;;;;5033664;28;20622;-66
2021/07/30 13:21:35;;;;;;;3.97;1.97;;;;;;;;;;5048224;28;20017;-65
2021/07/30 13:24:00;;;;;;;10.50;2.97;;;;;;;;;;5050878;28;20256;-66
2021/07/30 13:26:25;;;;;;;6.77;2.67;;;;;;;;;;5048031;28;20362;-66
2021/07/30 13:28:51;;;;;;;4.10;2.20;;;;;;;;;;5044892;28;20295;-66
2021/07/30 13:31:16;;;;;;;15.93;2.43;;;;;;;;;;5046487;28;20021;-66
2021/07/30 13:33:41;;;;;;;16.00;2.60;;;;;;;;;;5051175;28;20035;-67
2021/07/30 13:36:06;;;;;;;3.23;1.53;;;;;;;;;;5051601;28;20422;-66
2021/07/30 13:38:31;;;;;;;2.08;1.70;;;;;;;;;;5050176;28;20052;-66
2021/07/30 13:40:57;;;;;;;4.83;2.37;;;;;;;;;;5051049;28;20384;-67
2021/07/30 13:43:24;;;;;;;5.80;2.53;;;;;;;;;;5047797;28;20021;-66
2021/07/30 13:45:51;;;;;;;4.75;2.67;;;;;;;;;;5048439;28;20028;-67
2021/07/30 13:48:17;;;;;;;13.73;3.47;;;;;;;;;;5048777;28;20017;-66
2021/07/30 13:50:42;;;;;;;4.68;2.42;;;;;;;;;;5052137;28;20455;-66
2021/07/30 13:53:07;;;;;;;5.85;2.90;;;;;;;;;;5051616;28;20108;-66
2021/07/30 13:55:32;;;;;;;5.10;2.43;;;;;;;;;;5051693;28;20013;-66
2021/07/30 13:57:58;;;;;;;3.27;1.60;;;;;;;;;;5051248;28;20302;-66
2021/07/30 14:00:23;;;;;;;5.00;2.47;;;;;;;;;;5051518;28;20108;-65
2021/07/30 14:02:48;;;;;;;7.60;2.50;;;;;;;;;;5051390;28;20738;-66
2021/07/30 14:05:14;;;;;;;5.75;2.50;;;;;;;;;;5051515;28;20028;-66
2021/07/30 14:07:43;;;;;;;6.95;2.60;;;;;;;;;;5033064;28;20013;-66
2021/07/30 14:10:09;;;;;;;6.43;3.00;;;;;;;;;;5051272;28;20025;-66
2021/07/30 14:12:34;;;;;;;6.13;2.92;;;;;;;;;;5050266;28;20052;-66
2021/07/30 14:14:59;;;;;;;7.07;2.90;;;;;;;;;;5051205;28;20473;-67
2021/07/30 14:17:25;;;;;;;5.97;2.50;;;;;;;;;;5051235;28;20151;-66
2021/07/30 14:19:50;;;;;;;6.13;2.00;;;;;;;;;;5050766;28;20029;-66
2021/07/30 14:22:15;;;;;;;8.77;3.07;;;;;;;;;;5050849;28;20126;-66
2021/07/30 14:24:40;;;;;;;6.07;2.57;;;;;;;;;;5050186;28;20787;-66
2021/07/30 14:27:05;;;;;;;5.13;2.92;;;;;;;;;;5050869;28;20017;-66
2021/07/30 14:29:31;;;;;;;7.90;2.50;;;;;;;;;;5050273;28;20032;-66
2021/07/30 14:31:56;;;;;;;5.55;2.50;;;;;;;;;;5051145;28;20025;-66
2021/07/30 14:34:21;;;;;;;4.90;2.78;;;;;;;;;;5050763;28;20359;-66
2021/07/30 14:36:46;;;;;;;4.53;2.67;;;;;;;;;;5050868;28;20587;-66
2021/07/30 14:39:17;;;;;;;8.73;2.93;;;;;;;;;;5050006;28;20068;-66